Time;durP1;ratioP1;P1;durP2;ratioP2;P2;SDS_P1;SDS_P2;PMS_P1;PMS_P2;Temp;Humidity;BMP_temperature;BMP_pressure;BME280_temperature;BME280_humidity;BME280_pressure;Samples;Min_cycle;Max_cycle;Signal;HPM_P1;HPM_P2
2021/08/16 00:01:34;;;;;;;4.80;4.10;;;26.20;58.20;;;;;;6200920;23;20379;-84
2021/08/16 00:04:00;;;;;;;6.40;4.63;;;26.20;58.20;;;;;;6175315;23;20179;-84
2021/08/16 00:06:25;;;;;;;5.00;4.50;;;26.20;58.20;;;;;;6173841;23;20155;-84
2021/08/16 00:08:51;;;;;;;5.73;4.67;;;26.20;58.20;;;;;;6200476;23;20231;-84
2021/08/16 00:11:17;;;;;;;5.90;4.37;;;26.20;58.20;;;;;;6200744;23;20171;-84
2021/08/16 00:13:43;;;;;;;4.80;4.40;;;26.20;58.20;;;;;;6173389;23;20226;-84
2021/08/16 00:16:08;;;;;;;6.17;4.93;;;26.20;58.20;;;;;;6173776;23;20375;-84
2021/08/16 00:18:35;;;;;;;4.80;4.40;;;26.20;58.20;;;;;;6173405;23;20383;-84
2021/08/16 00:21:01;;;;;;;4.53;4.10;;;26.20;58.20;;;;;;6173834;23;20162;-84
2021/08/16 00:23:27;;;;;;;5.10;4.60;;;26.20;58.20;;;;;;6200730;23;20777;-84
2021/08/16 00:25:52;;;;;;;3.90;3.60;;;26.20;58.20;;;;;;6199877;23;20375;-84
2021/08/16 00:28:18;;;;;;;3.97;3.57;;;26.20;58.20;;;;;;6173991;23;20214;-84
2021/08/16 00:30:44;;;;;;;5.03;4.63;;;26.20;58.20;;;;;;6174002;23;20210;-84
2021/08/16 00:33:10;;;;;;;4.77;4.37;;;26.20;58.20;;;;;;6199788;23;20610;-84
2021/08/16 00:35:35;;;;;;;4.37;3.97;;;26.20;58.20;;;;;;6174396;23;20869;-84
2021/08/16 00:38:01;;;;;;;4.20;3.80;;;26.20;58.30;;;;;;6173817;23;20583;-84
2021/08/16 00:40:27;;;;;;;4.30;3.90;;;26.20;58.30;;;;;;6200185;23;20152;-84
2021/08/16 00:42:53;;;;;;;4.10;3.73;;;26.20;58.30;;;;;;6173932;23;20390;-84
2021/08/16 00:45:19;;;;;;;4.80;4.40;;;26.20;58.30;;;;;;6172719;23;20156;-84
2021/08/16 00:47:44;;;;;;;4.70;4.30;;;26.20;58.20;;;;;;6173770;23;20183;-84
2021/08/16 00:50:13;;;;;;;4.33;3.93;;;26.20;58.30;;;;;;6173085;23;20184;-84
2021/08/16 00:52:43;;;;;;;4.60;4.20;;;26.20;58.20;;;;;;6173514;23;20167;-84
2021/08/16 00:55:10;;;;;;;5.70;4.27;;;26.20;58.30;;;;;;6200011;23;20411;-84
2021/08/16 00:57:36;;;;;;;6.43;4.30;;;26.20;58.30;;;;;;6173602;23;20402;-84
2021/08/16 01:00:05;;;;;;;4.40;4.00;;;26.20;58.30;;;;;;6199721;23;20372;-84
2021/08/16 01:02:32;;;;;;;4.83;4.43;;;26.20;58.30;;;;;;6172633;23;20379;-84
2021/08/16 01:05:02;;;;;;;4.47;4.03;;;26.20;58.30;;;;;;6173521;23;20387;-84
2021/08/16 01:07:28;;;;;;;5.00;4.50;;;26.20;58.80;;;;;;6199110;23;20352;-84
2021/08/16 01:09:54;;;;;;;4.43;3.97;;;26.20;58.30;;;;;;6172350;23;20418;-84
2021/08/16 01:12:20;;;;;;;4.90;4.50;;;26.20;58.20;;;;;;6172989;23;20388;-84
2021/08/16 01:14:45;;;;;;;4.33;3.93;;;26.20;58.30;;;;;;6199100;23;20144;-84
2021/08/16 01:17:12;;;;;;;4.83;4.00;;;26.20;58.30;;;;;;6173023;23;20178;-84
2021/08/16 01:19:38;;;;;;;4.60;4.20;;;26.20;58.30;;;;;;6199319;23;20286;-84
2021/08/16 01:22:03;;;;;;;4.63;4.23;;;26.20;58.30;;;;;;6172993;23;20375;-84
2021/08/16 01:24:29;;;;;;;4.73;4.33;;;26.20;58.30;;;;;;6199295;23;20140;-84
2021/08/16 01:26:55;;;;;;;5.60;4.30;;;26.20;58.30;;;;;;6172870;23;20155;-84
2021/08/16 01:29:22;;;;;;;5.67;4.50;;;26.20;58.30;;;;;;6173613;23;20383;-84
2021/08/16 01:31:48;;;;;;;4.40;4.00;;;26.20;58.30;;;;;;6172393;23;20205;-84
2021/08/16 01:34:14;;;;;;;4.73;4.33;;;26.20;58.30;;;;;;6199262;23;20371;-84
2021/08/16 01:36:41;;;;;;;4.57;4.17;;;26.20;58.30;;;;;;6198898;23;20364;-84
2021/08/16 01:39:08;;;;;;;4.20;3.90;;;26.20;58.30;;;;;;6173878;23;20198;-84
2021/08/16 01:41:34;;;;;;;4.83;4.43;;;26.20;58.30;;;;;;6197782;23;20379;-84
2021/08/16 01:43:59;;;;;;;4.43;4.07;;;26.20;58.30;;;;;;6173613;23;20454;-84
2021/08/16 01:46:26;;;;;;;5.07;4.67;;;26.20;58.30;;;;;;6172982;23;20383;-84
2021/08/16 01:52:13;;;;;;;5.60;4.07;;;26.20;58.30;;;;;;6200497;23;20386;-84
2021/08/16 01:54:40;;;;;;;4.63;4.23;;;26.20;58.40;;;;;;6173502;23;20422;-84
2021/08/16 01:57:05;;;;;;;4.30;3.90;;;26.20;58.40;;;;;;6199903;23;20159;-84
2021/08/16 01:59:31;;;;;;;4.87;4.37;;;26.20;58.40;;;;;;6173537;23;20375;-83
2021/08/16 02:01:57;;;;;;;5.03;4.40;;;26.20;58.40;;;;;;6173424;23;20155;-83
2021/08/16 02:04:22;;;;;;;4.60;4.20;;;26.20;58.40;;;;;;6172779;23;20162;-84
2021/08/16 02:06:48;;;;;;;4.93;4.40;;;26.20;58.40;;;;;;6198557;23;20162;-83
2021/08/16 02:09:13;;;;;;;5.00;4.60;;;26.20;59.00;;;;;;6176535;23;20235;-83
2021/08/16 02:11:39;;;;;;;4.50;4.10;;;26.20;58.10;;;;;;6178506;23;20183;-83
2021/08/16 02:14:05;;;;;;;4.73;4.33;;;26.20;58.40;;;;;;6177831;23;20151;-84
2021/08/16 02:16:30;;;;;;;4.60;4.03;;;26.20;58.40;;;;;;6204087;23;20144;-84
2021/08/16 02:18:56;;;;;;;4.77;4.27;;;26.20;58.40;;;;;;6177701;23;20622;-83
2021/08/16 02:21:22;;;;;;;4.83;4.43;;;26.20;58.40;;;;;;6174728;23;20162;-84
2021/08/16 02:23:47;;;;;;;4.70;4.30;;;26.20;58.40;;;;;;6178347;23;20215;-83
2021/08/16 02:26:13;;;;;;;5.60;4.67;;;26.20;58.40;;;;;;6203889;23;20154;-83
2021/08/16 02:28:39;;;;;;;5.13;4.30;;;26.20;58.40;;;;;;6173147;23;20156;-83
2021/08/16 02:34:27;;;;;;;5.10;4.07;;;26.20;58.40;;;;;;6199773;23;20139;-83
2021/08/16 02:36:53;;;;;;;5.03;4.57;;;26.20;58.50;;;;;;6199502;23;20686;-83
2021/08/16 02:39:19;;;;;;;4.57;4.17;;;26.20;58.40;;;;;;6173459;23;20433;-83
2021/08/16 02:41:44;;;;;;;4.33;3.90;;;26.20;58.50;;;;;;6199557;23;20826;-83
2021/08/16 02:44:10;;;;;;;5.13;4.00;;;26.20;58.50;;;;;;6173146;23;20152;-83
2021/08/16 02:46:36;;;;;;;5.90;4.30;;;26.20;58.40;;;;;;6200100;23;20216;-83
2021/08/16 02:49:02;;;;;;;4.70;4.30;;;26.20;58.50;;;;;;6199402;23;20154;-83
2021/08/16 02:51:28;;;;;;;4.97;4.57;;;26.20;58.40;;;;;;6199058;23;20414;-83
2021/08/16 02:53:55;;;;;;;6.07;4.93;;;26.20;58.40;;;;;;6173004;23;20162;-83
2021/08/16 02:56:20;;;;;;;5.03;4.63;;;26.20;58.40;;;;;;6199033;23;20164;-83
2021/08/16 02:58:46;;;;;;;5.40;4.90;;;26.20;58.40;;;;;;6173728;23;20390;-84
2021/08/16 03:01:12;;;;;;;5.37;4.90;;;26.20;58.40;;;;;;6173109;23;20479;-83
2021/08/16 03:03:38;;;;;;;4.63;4.23;;;26.20;58.40;;;;;;6175030;23;20163;-84
2021/08/16 03:06:04;;;;;;;5.10;4.60;;;26.20;58.40;;;;;;6203690;23;20375;-83
2021/08/16 03:08:34;;;;;;;4.70;4.20;;;26.20;58.40;;;;;;6175450;23;20163;-84
2021/08/16 03:11:01;;;;;;;4.60;4.20;;;26.20;58.40;;;;;;6199931;23;20414;-84
2021/08/16 03:13:27;;;;;;;5.30;4.73;;;26.20;58.40;;;;;;6202696;23;20375;-84
2021/08/16 03:15:53;;;;;;;4.83;4.30;;;26.20;58.40;;;;;;6203100;23;20352;-83
2021/08/16 03:18:18;;;;;;;5.03;4.50;;;26.20;58.40;;;;;;6179213;23;20152;-83
2021/08/16 03:20:44;;;;;;;5.70;5.20;;;26.20;58.40;;;;;;6178469;23;20156;-83
2021/08/16 03:23:10;;;;;;;6.10;4.40;;;26.20;58.40;;;;;;6202293;23;20152;-83
2021/08/16 03:25:35;;;;;;;4.97;3.93;;;26.20;58.40;;;;;;6174892;23;20162;-83
2021/08/16 03:28:04;;;;;;;6.73;5.07;;;26.20;58.50;;;;;;6200680;23;20159;-83
2021/08/16 03:30:33;;;;;;;4.93;4.43;;;26.20;58.50;;;;;;6174961;23;20234;-84
2021/08/16 03:32:59;;;;;;;4.90;4.50;;;26.20;58.50;;;;;;6175072;23;20407;-83
2021/08/16 03:35:24;;;;;;;5.30;4.87;;;26.20;58.50;;;;;;6200582;23;20378;-83
2021/08/16 03:37:50;;;;;;;5.50;4.57;;;26.20;58.50;;;;;;6173732;23;20210;-83
2021/08/16 03:40:16;;;;;;;4.83;4.43;;;26.20;58.50;;;;;;6173491;23;20187;-83
2021/08/16 03:42:41;;;;;;;5.73;4.67;;;26.20;58.50;;;;;;6174965;23;20160;-83
2021/08/16 03:45:13;;;;;;;5.20;4.70;;;26.20;58.50;;;;;;6199763;23;20156;-83
2021/08/16 03:47:39;;;;;;;4.73;4.33;;;26.20;58.50;;;;;;6201026;23;20136;-83
2021/08/16 03:50:06;;;;;;;4.70;4.30;;;26.20;58.50;;;;;;6200806;23;20451;-82
2021/08/16 03:52:35;;;;;;;4.90;4.50;;;26.20;58.50;;;;;;6175284;23;20207;-83
2021/08/16 03:55:01;;;;;;;5.17;4.50;;;26.20;58.50;;;;;;6174484;23;20876;-83
2021/08/16 03:57:27;;;;;;;4.63;4.17;;;26.20;58.50;;;;;;6200717;23;20384;-83
2021/08/16 03:59:53;;;;;;;6.00;4.57;;;26.20;58.50;;;;;;6174409;23;20152;-83
2021/08/16 04:02:18;;;;;;;5.87;4.73;;;26.20;58.50;;;;;;6178551;23;20152;-84
2021/08/16 04:04:44;;;;;;;4.77;4.37;;;26.20;58.50;;;;;;6177626;23;20160;-84
2021/08/16 04:07:11;;;;;;;6.30;5.07;;;26.20;58.50;;;;;;6202548;23;20151;-83
2021/08/16 04:09:37;;;;;;;5.10;4.60;;;26.20;58.50;;;;;;6205856;23;20147;-83
2021/08/16 04:12:03;;;;;;;7.43;4.50;;;26.20;58.50;;;;;;6176237;23;20383;-83
2021/08/16 04:14:33;;;;;;;4.77;4.37;;;26.20;58.50;;;;;;6205181;23;20372;-83
2021/08/16 04:16:58;;;;;;;4.53;4.13;;;26.20;58.50;;;;;;6205315;23;20378;-83
2021/08/16 04:19:24;;;;;;;4.20;3.90;;;26.20;58.50;;;;;;6174760;23;20392;-82
2021/08/16 04:21:50;;;;;;;4.80;4.30;;;26.20;58.50;;;;;;6199588;23;20235;-83
2021/08/16 04:24:16;;;;;;;4.80;4.40;;;26.20;58.50;;;;;;6174244;23;20599;-83
2021/08/16 04:26:41;;;;;;;5.00;4.37;;;26.20;58.50;;;;;;6174619;23;20155;-83
2021/08/16 04:29:07;;;;;;;5.20;4.80;;;26.20;58.50;;;;;;6200782;23;20754;-83
2021/08/16 04:31:33;;;;;;;4.87;4.40;;;26.20;58.50;;;;;;6174129;23;20188;-85
2021/08/16 04:33:59;;;;;;;8.30;4.90;;;26.20;58.50;;;;;;6173994;23;20595;-83
2021/08/16 04:36:25;;;;;;;7.03;5.00;;;26.20;58.50;;;;;;6174511;23;20414;-83
2021/08/16 04:38:51;;;;;;;6.80;5.07;;;26.20;58.50;;;;;;6173812;23;20450;-83
2021/08/16 04:41:16;;;;;;;5.30;4.80;;;26.20;58.50;;;;;;6200414;23;20151;-83
2021/08/16 04:43:42;;;;;;;5.10;4.60;;;26.20;58.60;;;;;;6199515;23;20646;-82
2021/08/16 04:46:08;;;;;;;5.43;4.70;;;26.20;58.50;;;;;;6200337;23;20148;-83
2021/08/16 04:48:33;;;;;;;5.30;4.60;;;26.20;58.50;;;;;;6174271;23;20162;-83
2021/08/16 04:50:59;;;;;;;6.60;6.00;;;26.20;58.50;;;;;;6200133;23;20167;-83
2021/08/16 04:53:25;;;;;;;5.20;4.70;;;26.20;58.50;;;;;;6174814;23;20242;-83
2021/08/16 04:55:50;;;;;;;5.67;5.07;;;26.20;58.60;;;;;;6200304;23;20164;-83
2021/08/16 04:58:16;;;;;;;5.13;4.67;;;26.10;58.50;;;;;;6178246;23;20156;-83
2021/08/16 05:00:42;;;;;;;4.93;4.53;;;26.20;58.50;;;;;;6204109;23;20206;-83
2021/08/16 05:03:07;;;;;;;4.73;4.30;;;26.20;58.50;;;;;;6201255;23;20155;-84
2021/08/16 05:05:34;;;;;;;4.73;4.33;;;26.20;58.50;;;;;;6200273;23;20156;-85
2021/08/16 05:08:01;;;;;;;5.20;4.80;;;26.20;58.50;;;;;;6175327;23;20178;-83
2021/08/16 05:10:29;;;;;;;4.97;4.50;;;26.20;58.50;;;;;;6177491;23;20711;-83
2021/08/16 05:12:58;;;;;;;4.87;4.40;;;26.20;58.50;;;;;;6178799;23;20411;-83
2021/08/16 05:15:24;;;;;;;5.67;5.03;;;26.20;58.60;;;;;;6200904;23;20370;-83
2021/08/16 05:17:50;;;;;;;5.50;4.80;;;26.20;58.60;;;;;;6201573;23;20371;-83
2021/08/16 05:23:37;;;;;;;4.10;3.80;;;26.20;58.60;;;;;;6199838;23;20136;-83
2021/08/16 05:26:03;;;;;;;5.80;5.20;;;26.20;58.60;;;;;;6174285;23;20484;-82
2021/08/16 05:28:29;;;;;;;10.53;4.83;;;26.20;58.60;;;;;;6174090;23;20158;-82
2021/08/16 05:30:56;;;;;;;5.20;4.80;;;26.20;58.60;;;;;;6173120;23;20186;-83
2021/08/16 05:33:22;;;;;;;5.17;4.67;;;26.20;58.70;;;;;;6172138;23;20155;-83
2021/08/16 05:35:48;;;;;;;5.07;4.67;;;26.20;58.60;;;;;;6198112;23;20906;-84
2021/08/16 05:38:13;;;;;;;4.83;4.43;;;26.20;58.60;;;;;;6172141;23;20382;-84
2021/08/16 05:40:39;;;;;;;5.40;4.90;;;26.20;58.60;;;;;;6198699;23;20144;-82
2021/08/16 05:43:05;;;;;;;5.20;4.70;;;26.20;58.50;;;;;;6172637;23;20243;-83
2021/08/16 05:45:31;;;;;;;4.77;4.37;;;26.20;58.50;;;;;;6171602;23;20461;-82
2021/08/16 05:47:57;;;;;;;5.00;4.50;;;26.20;58.50;;;;;;6172276;23;20390;-83
2021/08/16 05:50:25;;;;;;;5.23;4.73;;;26.20;58.50;;;;;;6171914;23;20457;-82
2021/08/16 05:52:52;;;;;;;5.23;4.77;;;26.20;58.50;;;;;;6200434;23;20367;-82
2021/08/16 05:55:18;;;;;;;4.70;4.30;;;26.30;58.60;;;;;;6185829;23;20398;-82
2021/08/16 05:57:44;;;;;;;4.43;4.03;;;26.30;58.60;;;;;;6229517;23;20409;-83
2021/08/16 06:00:11;;;;;;;6.13;5.47;;;26.30;58.60;;;;;;6231086;23;20154;-84
2021/08/16 06:02:37;;;;;;;5.40;4.90;;;26.30;58.60;;;;;;6232749;23;20362;-83
2021/08/16 06:05:04;;;;;;;5.23;4.73;;;26.20;58.50;;;;;;6230242;23;20401;-83
2021/08/16 06:07:30;;;;;;;5.37;4.30;;;26.30;58.50;;;;;;6230233;23;20155;-84
2021/08/16 06:09:56;;;;;;;5.10;4.60;;;26.30;58.50;;;;;;6232470;23;20465;-84
2021/08/16 06:12:21;;;;;;;4.27;3.87;;;26.20;58.40;;;;;;6256153;23;20151;-84
2021/08/16 06:14:54;;;;;;;6.10;5.50;;;26.30;58.40;;;;;;6253791;23;20158;-83
2021/08/16 06:17:24;;;;;;;5.03;4.53;;;26.30;58.40;;;;;;6251861;23;20151;-84
2021/08/16 06:19:49;;;;;;;5.03;4.53;;;26.20;58.30;;;;;;6253116;23;20378;-84
2021/08/16 06:22:18;;;;;;;5.23;4.73;;;26.20;58.30;;;;;;6252790;23;20477;-82
2021/08/16 06:24:47;;;;;;;6.70;4.97;;;26.20;58.40;;;;;;6227243;23;20147;-83
2021/08/16 06:27:18;;;;;;;6.23;4.93;;;26.30;58.30;;;;;;6252576;23;20378;-83
2021/08/16 06:29:44;;;;;;;4.90;4.47;;;26.20;58.20;;;;;;6228832;23;20350;-83
2021/08/16 06:32:10;;;;;;;5.30;4.80;;;26.30;58.30;;;;;;6251831;23;20383;-83
2021/08/16 06:34:40;;;;;;;4.10;3.70;;;26.30;58.20;;;;;;6227173;23;20389;-82
2021/08/16 06:37:05;;;;;;;4.93;4.20;;;26.30;58.20;;;;;;6228390;23;20147;-82
2021/08/16 06:39:31;;;;;;;5.20;4.80;;;26.30;58.20;;;;;;6226586;23;20857;-83
2021/08/16 06:42:00;;;;;;;5.13;4.13;;;26.30;58.10;;;;;;6227111;23;20159;-82
2021/08/16 06:44:26;;;;;;;5.20;4.17;;;26.30;58.10;;;;;;6228875;23;20150;-83
2021/08/16 06:46:55;;;;;;;4.37;3.97;;;26.30;58.10;;;;;;6227544;23;20382;-83
2021/08/16 06:49:31;;;;;;;4.47;4.17;;;26.30;58.10;;;;;;6227802;23;20378;-83
2021/08/16 06:51:57;;;;;;;6.13;4.50;;;26.20;58.00;;;;;;6233050;23;20413;-83
2021/08/16 06:54:23;;;;;;;4.97;4.20;;;26.20;58.00;;;;;;6229794;23;20389;-83
2021/08/16 06:56:50;;;;;;;4.33;3.60;;;26.20;58.00;;;;;;6233013;23;20162;-84
2021/08/16 06:59:16;;;;;;;4.70;4.20;;;26.20;58.00;;;;;;6233315;23;20740;-84
2021/08/16 07:01:42;;;;;;;6.83;4.60;;;26.20;58.00;;;;;;6230535;23;20378;-82
2021/08/16 07:04:10;;;;;;;4.47;4.07;;;26.20;58.00;;;;;;6232649;23;20374;-83
2021/08/16 07:06:36;;;;;;;5.03;4.53;;;26.20;58.00;;;;;;6232955;23;20384;-83
2021/08/16 07:09:04;;;;;;;4.90;4.40;;;26.20;58.00;;;;;;6253066;23;20382;-83
2021/08/16 07:11:32;;;;;;;6.67;4.67;;;26.20;58.00;;;;;;6240888;23;20183;-83
2021/08/16 07:14:04;;;;;;;4.77;4.13;;;26.30;58.00;;;;;;6242547;23;20374;-84
2021/08/16 07:16:30;;;;;;;7.50;4.20;;;26.20;57.90;;;;;;6260387;23;20418;-83
2021/08/16 07:18:56;;;;;;;4.93;4.43;;;26.20;57.80;;;;;;6229320;23;20370;-82
2021/08/16 07:21:33;;;;;;;4.50;3.80;;;26.20;57.80;;;;;;6258887;23;20206;-83
2021/08/16 07:24:09;;;;;;;5.07;4.60;;;26.20;57.80;;;;;;6240297;23;20159;-84
2021/08/16 07:26:35;;;;;;;4.60;3.80;;;26.20;57.80;;;;;;6240292;23;20700;-85
2021/08/16 07:29:10;;;;;;;4.83;4.33;;;26.20;57.70;;;;;;6240582;23;20382;-84
2021/08/16 07:31:42;;;;;;;4.67;4.10;;;26.20;57.70;;;;;;6240973;23;20417;-84
2021/08/16 07:34:09;;;;;;;5.93;3.87;;;26.20;57.70;;;;;;6265334;23;20382;-83
2021/08/16 07:36:35;;;;;;;4.30;3.90;;;26.20;57.70;;;;;;6265712;23;20374;-83
2021/08/16 07:39:10;;;;;;;4.87;4.00;;;26.20;57.60;;;;;;6239717;23;20405;-84
2021/08/16 07:41:37;;;;;;;4.10;3.70;;;26.20;57.60;;;;;;6240452;23;20382;-84
2021/08/16 07:44:14;;;;;;;4.60;3.90;;;26.20;57.60;;;;;;6240049;23;20404;-83
2021/08/16 07:46:40;;;;;;;6.70;5.03;;;26.20;57.60;;;;;;6262268;23;20366;-83
2021/08/16 07:49:06;;;;;;;5.67;3.90;;;26.20;57.60;;;;;;6258671;23;20422;-82
2021/08/16 07:51:31;;;;;;;4.47;3.70;;;26.20;57.60;;;;;;6236731;23;20171;-82
2021/08/16 07:53:57;;;;;;;5.20;3.80;;;26.20;57.60;;;;;;6232382;23;20155;-82
2021/08/16 07:56:29;;;;;;;5.50;4.20;;;26.20;57.60;;;;;;6234852;23;20147;-84
2021/08/16 07:58:55;;;;;;;4.73;3.80;;;26.20;57.60;;;;;;6234660;23;20175;-83
2021/08/16 08:01:20;;;;;;;3.90;3.50;;;26.20;57.60;;;;;;6258012;23;20394;-83
2021/08/16 08:03:46;;;;;;;5.03;4.00;;;26.20;57.60;;;;;;6234278;23;20159;-83
2021/08/16 08:06:17;;;;;;;6.20;4.70;;;26.20;57.50;;;;;;6259113;23;20162;-83
2021/08/16 08:08:44;;;;;;;4.20;3.30;;;26.20;57.50;;;;;;6236190;23;20147;-82
2021/08/16 08:11:09;;;;;;;5.50;4.10;;;26.20;58.10;;;;;;6235003;23;20428;-82
2021/08/16 08:13:36;;;;;;;4.93;3.53;;;26.20;57.50;;;;;;6260400;23;20386;-83
2021/08/16 08:16:02;;;;;;;4.20;3.67;;;26.20;57.50;;;;;;6234646;23;20174;-82
2021/08/16 08:18:28;;;;;;;4.47;4.07;;;26.20;57.50;;;;;;6235328;23;20374;-82
2021/08/16 08:20:53;;;;;;;3.60;3.30;;;26.20;57.50;;;;;;6261169;23;20155;-82
2021/08/16 08:23:19;;;;;;;4.57;4.03;;;26.20;57.50;;;;;;6260571;23;20178;-84
2021/08/16 08:25:48;;;;;;;5.20;3.93;;;26.20;57.40;;;;;;6235320;23;20151;-82
2021/08/16 08:28:15;;;;;;;4.63;3.90;;;26.30;57.50;;;;;;6260138;23;20162;-82
2021/08/16 08:30:42;;;;;;;3.50;3.20;;;26.20;57.40;;;;;;6233124;23;20422;-82
2021/08/16 08:33:08;;;;;;;4.37;3.73;;;26.30;57.40;;;;;;6234551;23;20382;-82
2021/08/16 08:35:34;;;;;;;7.70;4.17;;;26.20;57.40;;;;;;6236380;23;20371;-82
2021/08/16 08:37:59;;;;;;;4.23;3.47;;;26.20;57.30;;;;;;6237025;23;20143;-82
2021/08/16 08:40:28;;;;;;;5.30;3.17;;;26.20;57.20;;;;;;6234847;23;20155;-82
2021/08/16 08:42:55;;;;;;;4.07;2.90;;;26.20;57.10;;;;;;6235950;23;20147;-82
2021/08/16 08:45:26;;;;;;;4.07;3.00;;;26.20;57.00;;;;;;6236455;23;20378;-82
2021/08/16 08:47:53;;;;;;;3.50;2.90;;;26.20;57.00;;;;;;6237260;23;20386;-82
2021/08/16 08:50:22;;;;;;;3.00;2.70;;;26.20;56.90;;;;;;6238016;23;20398;-82
2021/08/16 08:52:50;;;;;;;4.13;3.27;;;26.20;56.90;;;;;;6236714;23;20397;-82
2021/08/16 08:55:15;;;;;;;4.97;3.33;;;26.20;56.80;;;;;;6236499;23;20382;-82
2021/08/16 08:57:44;;;;;;;4.50;3.00;;;26.20;56.70;;;;;;6230955;23;20390;-81
2021/08/16 09:00:15;;;;;;;5.03;3.80;;;26.20;56.70;;;;;;6181243;23;20140;-82
2021/08/16 09:02:42;;;;;;;4.37;3.53;;;26.20;56.70;;;;;;6180654;23;20372;-82
2021/08/16 09:05:11;;;;;;;4.17;3.20;;;26.20;56.70;;;;;;6180032;23;20387;-82
2021/08/16 09:07:39;;;;;;;4.93;3.40;;;26.20;56.60;;;;;;6180316;23;20383;-82
2021/08/16 09:10:10;;;;;;;4.63;3.23;;;26.20;56.60;;;;;;6180777;23;20457;-82
2021/08/16 09:12:45;;;;;;;4.17;3.13;;;26.20;56.60;;;;;;6182546;23;20377;-82
2021/08/16 09:15:17;;;;;;;3.70;3.37;;;26.20;56.70;;;;;;6180109;23;20667;-83
2021/08/16 09:17:43;;;;;;;4.80;3.50;;;26.20;56.80;;;;;;6180267;23;20394;-82
2021/08/16 09:20:17;;;;;;;4.63;3.60;;;26.20;56.70;;;;;;6205828;23;20379;-83
2021/08/16 09:22:54;;;;;;;5.43;3.43;;;26.20;56.70;;;;;;6179729;23;20384;-82
2021/08/16 09:25:20;;;;;;;4.47;3.00;;;26.20;56.80;;;;;;6180758;23;20455;-82
2021/08/16 09:27:47;;;;;;;3.20;2.90;;;26.20;56.80;;;;;;6182455;23;20467;-82
2021/08/16 09:30:18;;;;;;;4.37;3.30;;;26.20;56.70;;;;;;6181198;23;20185;-82
2021/08/16 09:32:44;;;;;;;4.97;2.70;;;26.20;56.70;;;;;;6180963;23;20372;-82
2021/08/16 09:35:14;;;;;;;3.57;3.17;;;26.20;56.60;;;;;;6181738;23;20382;-82
2021/08/16 09:37:52;;;;;;;4.67;3.30;;;26.20;56.60;;;;;;6181386;23;20151;-82
2021/08/16 09:40:18;;;;;;;3.53;3.07;;;26.20;56.50;;;;;;6208593;23;20379;-82
2021/08/16 09:42:56;;;;;;;4.80;2.77;;;26.20;56.50;;;;;;6180465;23;20407;-82
2021/08/16 09:45:35;;;;;;;3.87;3.17;;;26.20;56.50;;;;;;6206278;23;20132;-82
2021/08/16 09:48:07;;;;;;;3.40;2.90;;;26.30;56.60;;;;;;6206713;23;20370;-82
2021/08/16 09:50:41;;;;;;;3.23;2.93;;;26.20;56.60;;;;;;6206414;23;20407;-83
2021/08/16 09:53:18;;;;;;;3.13;2.83;;;26.20;56.60;;;;;;6179904;23;20406;-82
2021/08/16 09:55:49;;;;;;;3.23;2.70;;;26.20;56.40;;;;;;6180666;23;20375;-84
2021/08/16 09:58:17;;;;;;;3.10;2.80;;;26.20;56.40;;;;;;6206154;23;20402;-82
2021/08/16 10:00:45;;;;;;;4.33;3.00;;;26.20;56.30;;;;;;6180924;23;20403;-82
2021/08/16 10:03:12;;;;;;;3.07;2.60;;;26.20;56.20;;;;;;6180823;23;20383;-82
2021/08/16 10:05:42;;;;;;;3.43;2.73;;;26.20;56.20;;;;;;6181668;23;20410;-82
2021/08/16 10:08:14;;;;;;;7.23;3.00;;;26.20;56.10;;;;;;6180610;23;20450;-82
2021/08/16 10:10:42;;;;;;;3.03;2.43;;;26.20;56.00;;;;;;6180609;23;20418;-83
2021/08/16 10:13:10;;;;;;;3.53;2.90;;;26.20;56.00;;;;;;6180383;23;20437;-83
2021/08/16 10:15:44;;;;;;;3.87;2.50;;;26.20;56.00;;;;;;6205913;23;20372;-82
2021/08/16 10:18:14;;;;;;;5.13;3.00;;;26.20;55.90;;;;;;6181529;23;20375;-82
2021/08/16 10:20:40;;;;;;;3.30;2.70;;;26.20;55.80;;;;;;6181578;23;20394;-83
2021/08/16 10:23:45;;;;;;;4.00;2.70;;;26.20;55.80;;;;;;6180528;23;20395;-82
2021/08/16 10:26:11;;;;;;;4.20;2.80;;;26.20;55.70;;;;;;6164103;23;20398;-83
2021/08/16 10:28:43;;;;;;;3.13;2.60;;;26.20;55.70;;;;;;6206185;23;20372;-82
2021/08/16 10:31:08;;;;;;;4.57;2.53;;;26.20;55.70;;;;;;6179679;23;20591;-82
2021/08/16 10:33:46;;;;;;;3.40;2.33;;;26.20;55.80;;;;;;6205187;23;20370;-82
2021/08/16 10:36:19;;;;;;;2.47;2.20;;;26.20;55.80;;;;;;6203932;23;20148;-82
2021/08/16 10:38:59;;;;;;;3.47;3.00;;;26.20;55.90;;;;;;6178422;23;20478;-82
2021/08/16 10:41:39;;;;;;;3.33;2.30;;;26.20;55.90;;;;;;6208036;23;20514;-82
2021/08/16 10:44:16;;;;;;;2.07;1.70;;;26.20;55.80;;;;;;6179204;23;20375;-82
2021/08/16 10:46:46;;;;;;;2.80;2.20;;;26.20;55.80;;;;;;6179358;23;20393;-82
2021/08/16 10:49:15;;;;;;;2.70;2.17;;;26.20;55.60;;;;;;6178671;23;20458;-82
2021/08/16 10:51:49;;;;;;;3.00;2.27;;;26.20;55.50;;;;;;6205931;23;20437;-82
2021/08/16 10:54:34;;;;;;;3.23;2.13;;;26.20;55.50;;;;;;6179430;23;20367;-82
2021/08/16 10:57:00;;;;;;;3.60;2.20;;;26.20;55.40;;;;;;6179998;23;20402;-82
2021/08/16 10:59:28;;;;;;;3.03;2.73;;;26.20;55.40;;;;;;6229413;23;20406;-82
2021/08/16 11:01:56;;;;;;;4.20;2.40;;;26.20;55.30;;;;;;6235999;23;20374;-82
2021/08/16 11:04:35;;;;;;;6.60;2.23;;;26.20;55.30;;;;;;6234453;23;20413;-82
2021/08/16 11:07:03;;;;;;;4.83;2.87;;;26.20;55.30;;;;;;6234391;23;20401;-82
2021/08/16 11:09:31;;;;;;;3.00;2.30;;;26.20;55.30;;;;;;6234349;23;20367;-82
2021/08/16 11:12:03;;;;;;;2.47;2.20;;;26.20;55.40;;;;;;6234746;23;20476;-82
2021/08/16 11:14:29;;;;;;;4.13;2.57;;;26.20;55.50;;;;;;6234269;23;20389;-82
2021/08/16 11:16:56;;;;;;;3.10;2.20;;;26.20;55.50;;;;;;6234868;23;20451;-82
2021/08/16 11:19:23;;;;;;;3.33;1.90;;;26.20;55.50;;;;;;6234712;23;20381;-82
2021/08/16 11:21:54;;;;;;;2.83;2.17;;;26.20;55.50;;;;;;6235174;23;20470;-82
2021/08/16 11:24:35;;;;;;;2.70;2.20;;;26.20;55.50;;;;;;6235328;23;20413;-83
2021/08/16 11:27:05;;;;;;;2.93;1.80;;;26.20;55.50;;;;;;6239118;23;20457;-82
2021/08/16 11:29:31;;;;;;;2.63;2.30;;;26.20;55.50;;;;;;6239285;23;20756;-84
2021/08/16 11:32:03;;;;;;;3.70;2.60;;;26.20;55.50;;;;;;6239986;23;20413;-83
2021/08/16 11:34:31;;;;;;;3.30;2.43;;;26.20;55.50;;;;;;6239162;23;20147;-82
2021/08/16 11:36:58;;;;;;;2.73;2.20;;;26.20;55.50;;;;;;6238985;23;20396;-82
2021/08/16 11:39:31;;;;;;;3.13;2.30;;;26.20;55.50;;;;;;6239728;23;20382;-82
2021/08/16 11:42:01;;;;;;;2.20;1.80;;;26.20;55.50;;;;;;6240652;23;20378;-82
2021/08/16 11:44:28;;;;;;;2.27;1.87;;;26.20;55.50;;;;;;6240276;23;20382;-83
2021/08/16 11:47:01;;;;;;;3.60;2.30;;;26.20;55.40;;;;;;6239333;23;20383;-83
2021/08/16 11:49:31;;;;;;;2.13;1.93;;;26.20;55.40;;;;;;6237907;23;20387;-83
2021/08/16 11:52:01;;;;;;;2.30;1.93;;;26.20;55.30;;;;;;6238356;23;20469;-83
2021/08/16 11:54:32;;;;;;;2.33;2.10;;;26.20;55.40;;;;;;6239654;23;20362;-83
2021/08/16 11:57:00;;;;;;;3.23;1.90;;;26.20;55.50;;;;;;6239747;23;20351;-83
2021/08/16 11:59:27;;;;;;;2.20;1.90;;;26.20;55.40;;;;;;6216705;23;20399;-83
2021/08/16 12:01:55;;;;;;;2.90;2.20;;;26.20;55.30;;;;;;6182834;23;20383;-83
2021/08/16 12:04:22;;;;;;;2.30;2.07;;;26.20;55.20;;;;;;6182501;23;20379;-83
2021/08/16 12:06:54;;;;;;;3.07;1.80;;;26.20;55.20;;;;;;6180505;23;20371;-83
2021/08/16 12:09:31;;;;;;;2.13;1.87;;;26.20;55.10;;;;;;6179879;23;20379;-83
2021/08/16 12:12:00;;;;;;;3.50;1.83;;;26.20;55.00;;;;;;6205826;23;20394;-83
2021/08/16 12:14:37;;;;;;;4.30;2.20;;;26.20;54.60;;;;;;6206457;23;20426;-83
2021/08/16 12:17:04;;;;;;;2.33;1.50;;;26.20;54.70;;;;;;6207852;23;20394;-83
2021/08/16 12:19:30;;;;;;;2.53;2.07;;;26.20;54.70;;;;;;6207371;23;20371;-83
2021/08/16 12:22:14;;;;;;;3.07;1.90;;;26.20;54.40;;;;;;6181598;23;20410;-84
2021/08/16 12:24:40;;;;;;;2.50;1.87;;;26.20;54.40;;;;;;6182245;23;20462;-83
2021/08/16 12:27:10;;;;;;;4.07;1.70;;;26.10;54.40;;;;;;6181724;23;20383;-83
2021/08/16 12:29:46;;;;;;;3.40;1.80;;;26.20;54.30;;;;;;6208477;23;20359;-83
2021/08/16 12:32:22;;;;;;;2.13;1.53;;;26.20;54.10;;;;;;6181688;23;20418;-83
2021/08/16 12:34:50;;;;;;;3.53;1.90;;;26.20;54.30;;;;;;6184395;23;20359;-83
2021/08/16 12:37:35;;;;;;;3.93;2.10;;;26.10;54.00;;;;;;6184819;23;20790;-83
2021/08/16 12:40:20;;;;;;;6.43;2.10;;;26.20;54.00;;;;;;6181972;23;20371;-83
2021/08/16 12:42:58;;;;;;;3.70;2.00;;;26.10;54.00;;;;;;6181656;23;20379;-83
2021/08/16 12:45:25;;;;;;;2.83;1.63;;;26.10;53.80;;;;;;6207809;23;20362;-83
2021/08/16 12:48:02;;;;;;;2.80;1.80;;;26.10;54.00;;;;;;6180783;23;20447;-83
2021/08/16 12:50:30;;;;;;;2.60;1.70;;;26.10;54.10;;;;;;6205111;23;20416;-83
2021/08/16 12:52:56;;;;;;;4.60;1.70;;;26.10;54.10;;;;;;6178337;23;20398;-83
2021/08/16 12:55:22;;;;;;;2.50;1.70;;;26.10;54.00;;;;;;6205319;23;20378;-83
2021/08/16 13:01:21;;;;;;;4.53;1.70;;;26.10;53.90;;;;;;6205573;23;20414;-83
2021/08/16 13:03:47;;;;;;;2.00;1.63;;;26.10;54.10;;;;;;6205289;23;20362;-83
2021/08/16 13:06:13;;;;;;;2.23;1.60;;;26.10;54.30;;;;;;6179318;23;20379;-83